sensor_id;sensor_type;location;lat;lon;timestamp;pressure;altitude;pressure_sealevel;temperature;humidity
25560;BME280;13450;49.374;8.584;2023-11-21T00:00:14;99879.41;;;8.78;100.00
25560;BME280;13450;49.374;8.584;2023-11-21T00:02:40;99888.50;;;8.84;100.00
25560;BME280;13450;49.374;8.584;2023-11-21T00:05:12;99881.06;;;8.79;100.00
25560;BME280;13450;49.374;8.584;2023-11-21T00:07:39;99879.50;;;8.85;100.00
25560;BME280;13450;49.374;8.584;2023-11-21T00:10:05;99877.38;;;8.80;100.00
25560;BME280;13450;49.374;8.584;2023-11-21T00:12:31;99876.84;;;8.85;100.00
25560;BME280;13450;49.374;8.584;2023-11-21T00:14:58;99881.50;;;8.83;100.00
25560;BME280;13450;49.374;8.584;2023-11-21T00:17:24;99881.97;;;8.86;100.00
25560;BME280;13450;49.374;8.584;2023-11-21T00:19:49;99887.75;;;8.90;100.00
25560;BME280;13450;49.374;8.584;2023-11-21T00:22:19;99884.06;;;8.91;100.00
25560;BME280;13450;49.374;8.584;2023-11-21T00:24:47;99878.28;;;8.87;100.00
25560;BME280;13450;49.374;8.584;2023-11-21T00:27:13;99877.47;;;8.87;100.00
25560;BME280;13450;49.374;8.584;2023-11-21T00:29:38;99877.28;;;8.88;100.00
25560;BME280;13450;49.374;8.584;2023-11-21T00:32:07;99875.81;;;8.86;100.00
25560;BME280;13450;49.374;8.584;2023-11-21T00:34:35;99874.59;;;8.88;100.00
25560;BME280;13450;49.374;8.584;2023-11-21T00:37:00;99873.78;;;8.88;100.00
25560;BME280;13450;49.374;8.584;2023-11-21T00:39:25;99867.16;;;8.84;100.00
25560;BME280;13450;49.374;8.584;2023-11-21T00:41:52;99864.88;;;8.81;100.00
25560;BME280;13450;49.374;8.584;2023-11-21T00:44:17;99859.91;;;8.77;100.00
25560;BME280;13450;49.374;8.584;2023-11-21T00:46:42;99870.94;;;8.74;100.00
25560;BME280;13450;49.374;8.584;2023-11-21T00:49:09;99874.63;;;8.73;100.00
25560;BME280;13450;49.374;8.584;2023-11-21T00:51:34;99868.66;;;8.71;100.00
25560;BME280;13450;49.374;8.584;2023-11-21T00:54:01;99865.34;;;8.69;100.00
25560;BME280;13450;49.374;8.584;2023-11-21T00:56:26;99859.81;;;8.71;100.00
25560;BME280;13450;49.374;8.584;2023-11-21T00:58:51;99863.34;;;8.71;100.00
25560;BME280;13450;49.374;8.584;2023-11-21T01:01:18;99865.78;;;8.73;100.00
25560;BME280;13450;49.374;8.584;2023-11-21T01:03:46;99863.97;;;8.73;100.00
25560;BME280;13450;49.374;8.584;2023-11-21T01:06:12;99866.63;;;8.73;100.00
25560;BME280;13450;49.374;8.584;2023-11-21T01:08:37;99866.63;;;8.73;100.00
25560;BME280;13450;49.374;8.584;2023-11-21T01:11:03;99866.25;;;8.76;100.00
25560;BME280;13450;49.374;8.584;2023-11-21T01:13:28;99869.56;;;8.79;100.00
25560;BME280;13450;49.374;8.584;2023-11-21T01:15:55;99875.28;;;8.75;100.00
25560;BME280;13450;49.374;8.584;2023-11-21T01:18:20;99876.94;;;8.76;100.00
25560;BME280;13450;49.374;8.584;2023-11-21T01:20:46;99885.19;;;8.82;100.00
25560;BME280;13450;49.374;8.584;2023-11-21T01:23:16;99876.75;;;8.78;100.00
25560;BME280;13450;49.374;8.584;2023-11-21T01:25:42;99883.56;;;8.81;100.00
25560;BME280;13450;49.374;8.584;2023-11-21T01:28:09;99879.22;;;8.80;100.00
25560;BME280;13450;49.374;8.584;2023-11-21T01:30:35;99876.19;;;8.83;100.00
25560;BME280;13450;49.374;8.584;2023-11-21T01:33:00;99878.03;;;8.82;100.00
25560;BME280;13450;49.374;8.584;2023-11-21T01:35:28;99879.03;;;8.81;100.00
25560;BME280;13450;49.374;8.584;2023-11-21T01:37:53;99878.22;;;8.81;100.00
25560;BME280;13450;49.374;8.584;2023-11-21T01:40:18;99881.88;;;8.80;100.00
25560;BME280;13450;49.374;8.584;2023-11-21T01:42:44;99879.41;;;8.78;100.00
25560;BME280;13450;49.374;8.584;2023-11-21T01:45:12;99886.59;;;8.77;100.00
25560;BME280;13450;49.374;8.584;2023-11-21T01:47:38;99885.56;;;8.79;100.00
25560;BME280;13450;49.374;8.584;2023-11-21T01:50:06;99882.28;;;8.76;100.00
25560;BME280;13450;49.374;8.584;2023-11-21T01:52:34;99883.56;;;8.81;100.00
25560;BME280;13450;49.374;8.584;2023-11-21T01:55:00;99879.41;;;8.78;100.00
25560;BME280;13450;49.374;8.584;2023-11-21T01:57:26;99873.69;;;8.81;100.00
25560;BME280;13450;49.374;8.584;2023-11-21T01:59:56;99888.88;;;8.81;100.00
25560;BME280;13450;49.374;8.584;2023-11-21T02:02:24;99880.03;;;8.80;100.00
25560;BME280;13450;49.374;8.584;2023-11-21T02:04:49;99876.53;;;8.80;100.00
25560;BME280;13450;49.374;8.584;2023-11-21T02:07:16;99872.81;;;8.74;100.00
25560;BME280;13450;49.374;8.584;2023-11-21T02:09:44;99876.09;;;8.76;100.00
25560;BME280;13450;49.374;8.584;2023-11-21T02:12:10;99875.28;;;8.75;100.00
25560;BME280;13450;49.374;8.584;2023-11-21T02:14:35;99869.75;;;8.77;100.00
25560;BME280;13450;49.374;8.584;2023-11-21T02:17:03;99876.09;;;8.76;100.00
25560;BME280;13450;49.374;8.584;2023-11-21T02:19:29;99868.28;;;8.74;100.00
25560;BME280;13450;49.374;8.584;2023-11-21T02:21:57;99878.59;;;8.77;100.00
25560;BME280;13450;49.374;8.584;2023-11-21T02:24:28;99876.53;;;8.80;100.00
25560;BME280;13450;49.374;8.584;2023-11-21T02:26:53;99873.00;;;8.72;100.00
25560;BME280;13450;49.374;8.584;2023-11-21T02:29:21;99868.28;;;8.74;100.00
25560;BME280;13450;49.374;8.584;2023-11-21T02:31:53;99882.28;;;8.76;100.00
25560;BME280;13450;49.374;8.584;2023-11-21T02:34:20;99878.59;;;8.77;100.00
25560;BME280;13450;49.374;8.584;2023-11-21T02:36:46;99878.94;;;8.74;100.00
25560;BME280;13450;49.374;8.584;2023-11-21T02:39:12;99887.78;;;8.75;100.00
25560;BME280;13450;49.374;8.584;2023-11-21T02:41:40;99876.28;;;8.74;100.00
25560;BME280;13450;49.374;8.584;2023-11-21T02:44:08;99878.88;;;8.68;100.00
25560;BME280;13450;49.374;8.584;2023-11-21T02:46:34;99876.03;;;8.69;100.00
25560;BME280;13450;49.374;8.584;2023-11-21T02:49:03;99876.69;;;8.71;100.00
25560;BME280;13450;49.374;8.584;2023-11-21T02:51:32;99882.19;;;8.70;100.00
25560;BME280;13450;49.374;8.584;2023-11-21T02:53:58;99876.03;;;8.69;100.00
25560;BME280;13450;49.374;8.584;2023-11-21T02:56:27;99878.06;;;8.67;100.00
25560;BME280;13450;49.374;8.584;2023-11-21T02:58:54;99878.31;;;8.72;100.00
25560;BME280;13450;49.374;8.584;2023-11-21T03:01:20;99879.34;;;8.71;100.00
25560;BME280;13450;49.374;8.584;2023-11-21T03:03:45;99869.47;;;8.72;100.00
25560;BME280;13450;49.374;8.584;2023-11-21T03:06:12;99863.69;;;8.68;100.00
25560;BME280;13450;49.374;8.584;2023-11-21T03:08:38;99870.88;;;8.68;100.00
25560;BME280;13450;49.374;8.584;2023-11-21T03:11:03;99867.84;;;8.71;100.00
25560;BME280;13450;49.374;8.584;2023-11-21T03:13:29;99864.97;;;8.72;100.00
25560;BME280;13450;49.374;8.584;2023-11-21T03:15:54;99867.47;;;8.74;100.00
25560;BME280;13450;49.374;8.584;2023-11-21T03:18:20;99866.63;;;8.73;100.00
25560;BME280;13450;49.374;8.584;2023-11-21T03:20:48;99873.63;;;8.74;100.00
25560;BME280;13450;49.374;8.584;2023-11-21T03:23:13;99873.63;;;8.74;100.00
25560;BME280;13450;49.374;8.584;2023-11-21T03:25:40;99879.97;;;8.73;100.00
25560;BME280;13450;49.374;8.584;2023-11-21T03:28:05;99876.84;;;8.70;100.00
25560;BME280;13450;49.374;8.584;2023-11-21T03:30:31;99867.66;;;8.72;100.00
25560;BME280;13450;49.374;8.584;2023-11-21T03:32:56;99869.13;;;8.75;100.00
25560;BME280;13450;49.374;8.584;2023-11-21T03:35:22;99877.97;;;8.75;100.00
25560;BME280;13450;49.374;8.584;2023-11-21T03:37:47;99876.94;;;8.76;100.00
25560;BME280;13450;49.374;8.584;2023-11-21T03:40:13;99875.28;;;8.75;100.00
25560;BME280;13450;49.374;8.584;2023-11-21T03:42:39;99880.81;;;8.74;100.00
25560;BME280;13450;49.374;8.584;2023-11-21T03:45:05;99882.63;;;8.73;100.00
25560;BME280;13450;49.374;8.584;2023-11-21T03:47:31;99879.78;;;8.75;100.00
25560;BME280;13450;49.374;8.584;2023-11-21T03:49:56;99886.69;;;8.69;100.00
25560;BME280;13450;49.374;8.584;2023-11-21T03:52:22;99876.69;;;8.71;100.00
25560;BME280;13450;49.374;8.584;2023-11-21T03:54:47;99884.69;;;8.71;100.00
25560;BME280;13450;49.374;8.584;2023-11-21T03:57:12;99879.69;;;8.68;100.00
25560;BME280;13450;49.374;8.584;2023-11-21T03:59:41;99878.69;;;8.69;100.00
25560;BME280;13450;49.374;8.584;2023-11-21T04:02:06;99893.31;;;8.73;100.00
25560;BME280;13450;49.374;8.584;2023-11-21T04:04:33;99886.94;;;8.74;100.00
25560;BME280;13450;49.374;8.584;2023-11-21T04:06:59;99899.00;;;8.70;100.00
25560;BME280;13450;49.374;8.584;2023-11-21T04:09:26;99896.16;;;8.72;100.00
25560;BME280;13450;49.374;8.584;2023-11-21T04:11:52;99890.63;;;8.73;100.00
25560;BME280;13450;49.374;8.584;2023-11-21T04:14:18;99891.28;;;8.75;100.00
25560;BME280;13450;49.374;8.584;2023-11-21T04:16:43;99904.34;;;8.70;100.00
25560;BME280;13450;49.374;8.584;2023-11-21T04:19:09;99892.88;;;8.70;100.00
25560;BME280;13450;49.374;8.584;2023-11-21T04:21:36;99905.63;;;8.74;100.00
25560;BME280;13450;49.374;8.584;2023-11-21T04:24:04;99909.13;;;8.75;100.00
25560;BME280;13450;49.374;8.584;2023-11-21T04:26:31;99904.34;;;8.70;100.00
25560;BME280;13450;49.374;8.584;2023-11-21T04:28:56;99911.53;;;8.70;100.00
25560;BME280;13450;49.374;8.584;2023-11-21T04:31:22;99913.38;;;8.69;100.00
25560;BME280;13450;49.374;8.584;2023-11-21T04:33:47;99912.34;;;8.70;100.00
25560;BME280;13450;49.374;8.584;2023-11-21T04:36:12;99912.06;;;8.65;100.00
25560;BME280;13450;49.374;8.584;2023-11-21T04:38:38;99919.06;;;8.66;100.00
25560;BME280;13450;49.374;8.584;2023-11-21T04:41:03;99914.28;;;8.61;100.00
25560;BME280;13450;49.374;8.584;2023-11-21T04:43:31;99920.66;;;8.60;100.00
25560;BME280;13450;49.374;8.584;2023-11-21T04:45:56;99919.81;;;8.60;100.00
25560;BME280;13450;49.374;8.584;2023-11-21T04:48:22;99922.47;;;8.60;100.00
25560;BME280;13450;49.374;8.584;2023-11-21T04:50:47;99925.13;;;8.60;100.00
25560;BME280;13450;49.374;8.584;2023-11-21T04:53:12;99925.13;;;8.60;100.00
25560;BME280;13450;49.374;8.584;2023-11-21T04:55:40;99930.47;;;8.60;100.00
25560;BME280;13450;49.374;8.584;2023-11-21T04:58:05;99926.59;;;8.62;100.00
25560;BME280;13450;49.374;8.584;2023-11-21T05:00:30;99928.75;;;8.67;100.00
25560;BME280;13450;49.374;8.584;2023-11-21T05:02:56;99936.75;;;8.67;100.00
25560;BME280;13450;49.374;8.584;2023-11-21T05:05:23;99934.69;;;8.69;100.00
25560;BME280;13450;49.374;8.584;2023-11-21T05:07:51;99940.03;;;8.69;100.00
25560;BME280;13450;49.374;8.584;2023-11-21T05:10:18;99941.69;;;8.70;100.00
25560;BME280;13450;49.374;8.584;2023-11-21T05:12:43;99940.47;;;8.73;100.00
25560;BME280;13450;49.374;8.584;2023-11-21T05:15:09;99939.31;;;8.75;100.00
25560;BME280;13450;49.374;8.584;2023-11-21T05:17:38;99938.38;;;8.68;100.00
25560;BME280;13450;49.374;8.584;2023-11-21T05:20:13;99949.06;;;8.68;100.00
25560;BME280;13450;49.374;8.584;2023-11-21T05:22:39;99949.41;;;8.65;100.00
25560;BME280;13450;49.374;8.584;2023-11-21T05:25:05;99947.13;;;8.62;100.00
25560;BME280;13450;49.374;8.584;2023-11-21T05:27:33;99953.72;;;8.66;100.00
25560;BME280;13450;49.374;8.584;2023-11-21T05:30:04;99963.88;;;8.71;100.00
25560;BME280;13450;49.374;8.584;2023-11-21T05:32:37;99968.34;;;8.70;100.00
25560;BME280;13450;49.374;8.584;2023-11-21T05:35:03;99966.72;;;8.69;100.00
25560;BME280;13450;49.374;8.584;2023-11-21T05:37:29;99962.84;;;8.72;100.00
25560;BME280;13450;49.374;8.584;2023-11-21T05:39:55;99975.38;;;8.71;100.00
25560;BME280;13450;49.374;8.584;2023-11-21T05:42:23;99974.91;;;8.68;100.00
25560;BME280;13450;49.374;8.584;2023-11-21T05:44:48;99975.28;;;8.65;100.00
25560;BME280;13450;49.374;8.584;2023-11-21T05:47:14;99986.22;;;8.70;100.00
25560;BME280;13450;49.374;8.584;2023-11-21T05:49:39;99980.06;;;8.69;100.00
25560;BME280;13450;49.374;8.584;2023-11-21T05:52:05;99985.22;;;8.71;100.00
25560;BME280;13450;49.374;8.584;2023-11-21T05:54:35;99984.00;;;8.73;100.00
25560;BME280;13450;49.374;8.584;2023-11-21T05:57:01;99984.84;;;8.74;100.00
25560;BME280;13450;49.374;8.584;2023-11-21T05:59:26;99988.72;;;8.71;100.00
25560;BME280;13450;49.374;8.584;2023-11-21T06:01:52;99994.41;;;8.68;100.00
25560;BME280;13450;49.374;8.584;2023-11-21T06:04:17;100004.06;;;8.69;100.00
25560;BME280;13450;49.374;8.584;2023-11-21T06:06:43;100005.06;;;8.68;100.00
25560;BME280;13450;49.374;8.584;2023-11-21T06:09:11;99999.06;;;8.66;100.00
25560;BME280;13450;49.374;8.584;2023-11-21T06:11:37;100007.75;;;8.68;100.00
25560;BME280;13450;49.374;8.584;2023-11-21T06:14:02;100008.09;;;8.65;100.00
25560;BME280;13450;49.374;8.584;2023-11-21T06:16:27;100011.78;;;8.64;100.00
25560;BME280;13450;49.374;8.584;2023-11-21T06:18:54;100015.28;;;8.65;100.00
25560;BME280;13450;49.374;8.584;2023-11-21T06:21:21;100015.09;;;8.66;100.00
25560;BME280;13450;49.374;8.584;2023-11-21T06:23:47;100013.44;;;8.65;100.00
25560;BME280;13450;49.374;8.584;2023-11-21T06:26:12;100015.47;;;8.63;100.00
25560;BME280;13450;49.374;8.584;2023-11-21T06:28:38;100021.25;;;8.67;100.00
25560;BME280;13450;49.374;8.584;2023-11-21T06:31:03;100024.19;;;8.72;100.00
25560;BME280;13450;49.374;8.584;2023-11-21T06:33:31;100027.03;;;8.70;100.00
25560;BME280;13450;49.374;8.584;2023-11-21T06:35:56;100029.09;;;8.68;100.00
25560;BME280;13450;49.374;8.584;2023-11-21T06:38:22;100037.63;;;8.63;100.00
25560;BME280;13450;49.374;8.584;2023-11-21T06:40:47;100039.09;;;8.66;100.00
25560;BME280;13450;49.374;8.584;2023-11-21T06:43:12;100040.09;;;8.65;100.00
25560;BME280;13450;49.374;8.584;2023-11-21T06:45:39;100036.41;;;8.66;100.00
25560;BME280;13450;49.374;8.584;2023-11-21T06:48:04;100050.41;;;8.68;100.00
25560;BME280;13450;49.374;8.584;2023-11-21T06:50:29;100045.53;;;8.72;100.00
25560;BME280;13450;49.374;8.584;2023-11-21T06:52:55;100052.75;;;8.71;100.00
25560;BME280;13450;49.374;8.584;2023-11-21T06:55:22;100054.22;;;8.74;100.00
25560;BME280;13450;49.374;8.584;2023-11-21T06:57:48;100060.34;;;8.74;100.00
25560;BME280;13450;49.374;8.584;2023-11-21T07:00:15;100062.84;;;8.76;100.00
25560;BME280;13450;49.374;8.584;2023-11-21T07:02:41;100058.34;;;8.76;100.00
25560;BME280;13450;49.374;8.584;2023-11-21T07:05:06;100060.00;;;8.77;100.00
25560;BME280;13450;49.374;8.584;2023-11-21T07:07:31;100062.50;;;8.79;100.00
25560;BME280;13450;49.374;8.584;2023-11-21T07:09:59;100065.97;;;8.80;100.00
25560;BME280;13450;49.374;8.584;2023-11-21T07:12:28;100075.25;;;8.84;100.00
25560;BME280;13450;49.374;8.584;2023-11-21T07:14:54;100072.41;;;8.85;100.00
25560;BME280;13450;49.374;8.584;2023-11-21T07:17:19;100082.75;;;8.88;100.00
25560;BME280;13450;49.374;8.584;2023-11-21T07:19:44;100087.41;;;8.86;100.00
25560;BME280;13450;49.374;8.584;2023-11-21T07:22:10;100086.88;;;8.91;100.00
25560;BME280;13450;49.374;8.584;2023-11-21T07:24:36;100095.72;;;8.92;100.00
25560;BME280;13450;49.374;8.584;2023-11-21T07:27:02;100095.34;;;8.95;100.00
25560;BME280;13450;49.374;8.584;2023-11-21T07:29:29;100107.47;;;8.97;100.00
25560;BME280;13450;49.374;8.584;2023-11-21T07:31:57;100103.81;;;8.98;100.00
25560;BME280;13450;49.374;8.584;2023-11-21T07:34:22;100109.63;;;9.02;100.00
25560;BME280;13450;49.374;8.584;2023-11-21T07:36:48;100116.44;;;9.05;100.00
25560;BME280;13450;49.374;8.584;2023-11-21T07:39:15;100112.38;;;9.09;100.00
25560;BME280;13450;49.374;8.584;2023-11-21T07:41:43;100118.34;;;9.11;100.00
25560;BME280;13450;49.374;8.584;2023-11-21T07:44:14;100110.84;;;9.14;100.00
25560;BME280;13450;49.374;8.584;2023-11-21T07:46:40;100110.56;;;9.09;100.00
25560;BME280;13450;49.374;8.584;2023-11-21T07:49:06;100122.31;;;9.15;100.00
25560;BME280;13450;49.374;8.584;2023-11-21T07:51:31;100125.66;;;9.17;100.00
25560;BME280;13450;49.374;8.584;2023-11-21T07:53:59;100127.13;;;9.20;100.00
25560;BME280;13450;49.374;8.584;2023-11-21T07:56:27;100132.72;;;9.25;100.00
25560;BME280;13450;49.374;8.584;2023-11-21T07:58:52;100134.19;;;9.27;100.00
25560;BME280;13450;49.374;8.584;2023-11-21T08:01:17;100141.19;;;9.28;100.00
25560;BME280;13450;49.374;8.584;2023-11-21T08:03:43;100136.34;;;9.32;100.00
25560;BME280;13450;49.374;8.584;2023-11-21T08:06:09;100137.41;;;9.38;100.00
25560;BME280;13450;49.374;8.584;2023-11-21T08:08:34;100141.03;;;9.45;100.00
25560;BME280;13450;49.374;8.584;2023-11-21T08:10:59;100136.03;;;9.42;100.00
25560;BME280;13450;49.374;8.584;2023-11-21T08:13:27;100129.72;;;9.43;100.00
25560;BME280;13450;49.374;8.584;2023-11-21T08:15:57;100126.66;;;9.46;100.00
25560;BME280;13450;49.374;8.584;2023-11-21T08:18:27;100129.59;;;9.51;100.00
25560;BME280;13450;49.374;8.584;2023-11-21T08:20:55;100139.91;;;9.54;100.00
25560;BME280;13450;49.374;8.584;2023-11-21T08:23:20;100135.13;;;9.50;100.00
25560;BME280;13450;49.374;8.584;2023-11-21T08:25:46;100140.09;;;9.53;100.00
25560;BME280;13450;49.374;8.584;2023-11-21T08:28:12;100143.25;;;9.57;100.00
25560;BME280;13450;49.374;8.584;2023-11-21T08:30:39;100155.56;;;9.58;100.00
25560;BME280;13450;49.374;8.584;2023-11-21T08:33:06;100160.91;;;9.58;100.00
25560;BME280;13450;49.374;8.584;2023-11-21T08:35:32;100164.03;;;9.61;100.00
25560;BME280;13450;49.374;8.584;2023-11-21T08:37:57;100170.84;;;9.64;100.00
25560;BME280;13450;49.374;8.584;2023-11-21T08:40:25;100168.84;;;9.66;100.00
25560;BME280;13450;49.374;8.584;2023-11-21T08:42:52;100168.44;;;9.69;100.00
25560;BME280;13450;49.374;8.584;2023-11-21T08:45:24;100176.72;;;9.74;100.00
25560;BME280;13450;49.374;8.584;2023-11-21T08:47:50;100172.66;;;9.78;100.00
25560;BME280;13450;49.374;8.584;2023-11-21T08:50:16;100171.94;;;9.85;100.00
25560;BME280;13450;49.374;8.584;2023-11-21T08:52:41;100176.25;;;9.86;100.00
25560;BME280;13450;49.374;8.584;2023-11-21T08:55:08;100181.59;;;9.86;100.00
25560;BME280;13450;49.374;8.584;2023-11-21T08:57:34;100186.19;;;9.92;100.00
25560;BME280;13450;49.374;8.584;2023-11-21T09:00:06;100184.38;;;9.92;100.00
25560;BME280;13450;49.374;8.584;2023-11-21T09:02:41;100180.94;;;9.99;100.00
25560;BME280;13450;49.374;8.584;2023-11-21T09:05:10;100188.13;;;9.98;100.00
25560;BME280;13450;49.374;8.584;2023-11-21T09:07:38;100191.06;;;10.03;100.00
25560;BME280;13450;49.374;8.584;2023-11-21T09:10:03;100183.25;;;10.02;100.00
25560;BME280;13450;49.374;8.584;2023-11-21T09:12:30;100190.72;;;10.06;100.00
25560;BME280;13450;49.374;8.584;2023-11-21T09:14:57;100191.53;;;10.07;100.00
25560;BME280;13450;49.374;8.584;2023-11-21T09:17:22;100188.91;;;10.14;100.00
25560;BME280;13450;49.374;8.584;2023-11-21T09:19:48;100193.41;;;10.28;100.00
25560;BME280;13450;49.374;8.584;2023-11-21T09:22:21;100195.97;;;10.37;100.00
25560;BME280;13450;49.374;8.584;2023-11-21T09:24:46;100202.25;;;10.44;100.00
25560;BME280;13450;49.374;8.584;2023-11-21T09:27:13;100197.16;;;10.49;100.00
25560;BME280;13450;49.374;8.584;2023-11-21T09:29:40;100205.69;;;10.59;100.00
25560;BME280;13450;49.374;8.584;2023-11-21T09:32:06;100209.25;;;10.67;100.00
25560;BME280;13450;49.374;8.584;2023-11-21T09:34:37;100210.53;;;10.71;100.00
25560;BME280;13450;49.374;8.584;2023-11-21T09:37:04;100211.31;;;10.65;100.00
25560;BME280;13450;49.374;8.584;2023-11-21T09:39:31;100222.50;;;10.75;100.00
25560;BME280;13450;49.374;8.584;2023-11-21T09:42:23;100225.56;;;10.72;100.00
25560;BME280;13450;49.374;8.584;2023-11-21T09:47:32;100221.06;;;10.72;100.00
25560;BME280;13450;49.374;8.584;2023-11-21T09:50:01;100234.63;;;10.71;100.00
25560;BME280;13450;49.374;8.584;2023-11-21T09:52:28;100239.84;;;10.57;100.00
25560;BME280;13450;49.374;8.584;2023-11-21T09:54:54;100242.69;;;10.56;100.00
25560;BME280;13450;49.374;8.584;2023-11-21T09:57:25;100241.41;;;10.52;100.00
25560;BME280;13450;49.374;8.584;2023-11-21T09:59:54;100242.63;;;10.49;100.00
25560;BME280;13450;49.374;8.584;2023-11-21T10:02:27;100245.13;;;10.51;100.00
25560;BME280;13450;49.374;8.584;2023-11-21T10:04:55;100246.34;;;10.48;100.00
25560;BME280;13450;49.374;8.584;2023-11-21T10:07:20;100246.84;;;10.58;100.00
25560;BME280;13450;49.374;8.584;2023-11-21T10:09:46;100243.91;;;10.53;100.00
25560;BME280;13450;49.374;8.584;2023-11-21T10:12:14;100251.38;;;10.58;100.00
25560;BME280;13450;49.374;8.584;2023-11-21T10:14:41;100258.75;;;10.56;100.00
25560;BME280;13450;49.374;8.584;2023-11-21T10:17:07;100262.00;;;10.51;100.00
25560;BME280;13450;49.374;8.584;2023-11-21T10:19:34;100262.44;;;10.55;100.00
25560;BME280;13450;49.374;8.584;2023-11-21T10:22:01;100263.66;;;10.52;100.00
25560;BME280;13450;49.374;8.584;2023-11-21T10:24:26;100259.13;;;10.53;100.00
25560;BME280;13450;49.374;8.584;2023-11-21T10:26:52;100259.34;;;10.51;100.00
25560;BME280;13450;49.374;8.584;2023-11-21T10:29:19;100257.03;;;10.48;100.00
25560;BME280;13450;49.374;8.584;2023-11-21T10:31:51;100262.28;;;10.41;100.00
25560;BME280;13450;49.374;8.584;2023-11-21T10:34:19;100261.28;;;10.27;100.00
25560;BME280;13450;49.374;8.584;2023-11-21T10:36:45;100259.72;;;10.33;100.00
25560;BME280;13450;49.374;8.584;2023-11-21T10:39:16;100261.09;;;10.29;100.00
25560;BME280;13450;49.374;8.584;2023-11-21T10:41:44;100266.25;;;10.30;100.00
25560;BME280;13450;49.374;8.584;2023-11-21T10:44:10;100262.13;;;10.28;100.00
25560;BME280;13450;49.374;8.584;2023-11-21T10:46:36;100277.41;;;10.34;100.00
25560;BME280;13450;49.374;8.584;2023-11-21T10:49:01;100266.97;;;10.39;100.00
25560;BME280;13450;49.374;8.584;2023-11-21T10:51:27;100263.78;;;10.44;100.00
25560;BME280;13450;49.374;8.584;2023-11-21T10:53:53;100266.78;;;10.41;100.00
25560;BME280;13450;49.374;8.584;2023-11-21T10:56:25;100276.00;;;10.53;100.00
25560;BME280;13450;49.374;8.584;2023-11-21T10:58:52;100277.31;;;10.57;100.00
25560;BME280;13450;49.374;8.584;2023-11-21T11:01:18;100280.53;;;10.53;100.00
25560;BME280;13450;49.374;8.584;2023-11-21T11:03:46;100280.59;;;10.59;100.00
25560;BME280;13450;49.374;8.584;2023-11-21T11:06:12;100279.22;;;10.64;100.00
25560;BME280;13450;49.374;8.584;2023-11-21T11:08:39;100281.41;;;10.75;100.00
25560;BME280;13450;49.374;8.584;2023-11-21T11:11:05;100280.88;;;10.86;100.00
25560;BME280;13450;49.374;8.584;2023-11-21T11:13:31;100281.41;;;10.97;100.00
25560;BME280;13450;49.374;8.584;2023-11-21T11:16:00;100287.25;;;11.07;100.00
25560;BME280;13450;49.374;8.584;2023-11-21T11:18:32;100280.38;;;11.20;100.00
25560;BME280;13450;49.374;8.584;2023-11-21T11:29:17;100290.06;;;11.21;100.00
25560;BME280;13450;49.374;8.584;2023-11-21T11:34:41;100283.94;;;11.05;100.00
25560;BME280;13450;49.374;8.584;2023-11-21T11:37:11;100286.94;;;10.95;100.00
25560;BME280;13450;49.374;8.584;2023-11-21T11:39:40;100297.06;;;11.00;100.00
25560;BME280;13450;49.374;8.584;2023-11-21T11:42:08;100298.53;;;11.03;100.00
25560;BME280;13450;49.374;8.584;2023-11-21T11:47:31;100293.41;;;11.01;100.00
25560;BME280;13450;49.374;8.584;2023-11-21T11:50:07;100287.63;;;11.04;100.00
25560;BME280;13450;49.374;8.584;2023-11-21T11:52:37;100286.28;;;11.37;100.00
25560;BME280;13450;49.374;8.584;2023-11-21T11:55:06;100288.72;;;11.60;100.00
25560;BME280;13450;49.374;8.584;2023-11-21T11:57:34;100289.84;;;12.08;100.00
25560;BME280;13450;49.374;8.584;2023-11-21T12:02:55;100286.84;;;13.21;100.00
25560;BME280;13450;49.374;8.584;2023-11-21T12:05:25;100287.88;;;13.27;100.00
25560;BME280;13450;49.374;8.584;2023-11-21T12:07:58;100289.50;;;13.82;100.00
25560;BME280;13450;49.374;8.584;2023-11-21T12:10:27;100299.53;;;14.13;100.00
25560;BME280;13450;49.374;8.584;2023-11-21T12:12:57;100308.91;;;13.97;100.00
25560;BME280;13450;49.374;8.584;2023-11-21T12:15:25;100308.09;;;13.90;100.00
25560;BME280;13450;49.374;8.584;2023-11-21T12:17:51;100307.25;;;13.96;100.00
25560;BME280;13450;49.374;8.584;2023-11-21T12:20:21;100312.66;;;13.83;100.00
25560;BME280;13450;49.374;8.584;2023-11-21T12:25:18;100307.66;;;14.98;100.00
25560;BME280;13450;49.374;8.584;2023-11-21T12:27:51;100303.31;;;16.79;100.00
25560;BME280;13450;49.374;8.584;2023-11-21T12:30:19;100313.91;;;18.77;99.10
25560;BME280;13450;49.374;8.584;2023-11-21T12:32:47;100314.41;;;19.55;97.81
25560;BME280;13450;49.374;8.584;2023-11-21T12:35:15;100324.44;;;19.94;83.15
25560;BME280;13450;49.374;8.584;2023-11-21T12:37:44;100320.50;;;19.28;85.76
25560;BME280;13450;49.374;8.584;2023-11-21T12:40:10;100322.88;;;19.41;82.25
25560;BME280;13450;49.374;8.584;2023-11-21T12:42:41;100321.81;;;18.50;85.95
25560;BME280;13450;49.374;8.584;2023-11-21T12:47:43;100329.81;;;16.21;100.00
25560;BME280;13450;49.374;8.584;2023-11-21T12:50:09;100335.78;;;16.04;100.00
25560;BME280;13450;49.374;8.584;2023-11-21T12:52:41;100336.72;;;16.66;100.00
25560;BME280;13450;49.374;8.584;2023-11-21T12:55:07;100334.34;;;16.89;100.00
25560;BME280;13450;49.374;8.584;2023-11-21T12:57:33;100336.09;;;16.15;100.00
25560;BME280;13450;49.374;8.584;2023-11-21T13:00:01;100331.66;;;16.02;100.00
25560;BME280;13450;49.374;8.584;2023-11-21T13:02:36;100344.81;;;15.15;100.00
25560;BME280;13450;49.374;8.584;2023-11-21T13:05:03;100349.91;;;14.98;100.00
25560;BME280;13450;49.374;8.584;2023-11-21T13:07:41;100347.53;;;14.23;100.00
25560;BME280;13450;49.374;8.584;2023-11-21T13:10:12;100344.91;;;13.96;100.00
25560;BME280;13450;49.374;8.584;2023-11-21T13:12:42;100346.53;;;14.04;100.00
25560;BME280;13450;49.374;8.584;2023-11-21T13:15:08;100347.16;;;14.13;100.00